Saratoga, Texas
Current Conditions -  °F | °C
As of 9:35 AM on Monday 22 Dec 2014 (Local Time) from KBMT Reporting Station
Haze Haze  
Wind Chill: 64°   Ceiling: 600
Heat Index: 64°   Visibility: 5mi
Dew Point: 62°   Wind: 8mph
Humidity: 96%   Direction: 170°S
Pressure: 29.78"   Gusts: NA
Location:  30.28°N, 94.53°W
Report Text: KBMT 221535Z AUTO 17007KT 5SM BR OVC006 18/17 A2978 RMK AO2 T01760169
Loading
Personal Weather Stations






























Interactive Weather Map New forecast layout! Learn more

10-Day Weather Forecast

Advertisements
Track Severe Weather on mobile